createdAt,value
2022-09-12T00:02:39.912Z,3.25
2022-09-12T00:07:41.600Z,3.40
2022-09-12T00:12:43.334Z,3.38
2022-09-12T00:17:45.056Z,3.38
2022-09-12T00:22:46.851Z,3.85
2022-09-12T00:27:48.668Z,3.60
2022-09-12T00:32:51.504Z,3.92
2022-09-12T00:37:53.185Z,3.58
2022-09-12T00:42:54.864Z,3.38
2022-09-12T00:48:00.741Z,3.75
2022-09-12T00:53:06.400Z,3.40
2022-09-12T00:58:17.045Z,3.30
2022-09-12T01:03:22.037Z,3.40
2022-09-12T01:08:25.828Z,3.50
2022-09-12T01:13:28.762Z,3.72
2022-09-12T01:18:57.028Z,3.83
2022-09-12T01:24:26.461Z,3.40
2022-09-12T01:29:56.543Z,3.50
2022-09-12T01:40:23.291Z,3.58
2022-09-12T01:45:33.760Z,3.80
2022-09-12T01:50:44.054Z,3.45
2022-09-12T01:55:51.375Z,3.88
2022-09-12T02:01:04.908Z,3.88
2022-09-12T02:06:19.289Z,4.05
2022-09-12T02:11:21.667Z,4.85
2022-09-12T02:16:34.201Z,4.97
2022-09-12T02:21:39.912Z,4.55
2022-09-12T02:26:47.984Z,5.05
2022-09-12T02:31:59.944Z,4.95
2022-09-12T02:37:05.928Z,5.80
2022-09-12T02:42:07.837Z,5.00
2022-09-12T02:47:29.863Z,5.50
2022-09-12T02:52:32.126Z,5.55
2022-09-12T02:57:33.920Z,5.20
2022-09-12T03:02:57.638Z,5.40
2022-09-12T03:08:15.916Z,5.60
2022-09-12T03:13:26.815Z,5.88
2022-09-12T03:18:28.464Z,6.70
2022-09-12T03:23:40.663Z,5.50
2022-09-12T03:28:45.449Z,6.38
2022-09-12T03:33:47.236Z,6.28
2022-09-12T03:38:48.965Z,7.03
2022-09-12T03:43:50.717Z,7.40
2022-09-12T03:48:52.487Z,6.63
2022-09-12T03:53:54.496Z,7.45
2022-09-12T03:58:56.216Z,7.93
2022-09-12T04:03:57.959Z,7.20
2022-09-12T04:08:59.845Z,7.40
2022-09-12T04:14:01.649Z,7.20
2022-09-12T04:19:03.688Z,6.25
2022-09-12T04:24:05.589Z,7.85
2022-09-12T04:29:12.677Z,7.05
2022-09-12T04:34:15.524Z,9.45
2022-09-12T04:39:17.261Z,8.68
2022-09-12T04:44:18.992Z,8.93
2022-09-12T04:49:20.795Z,9.93
2022-09-12T04:54:22.493Z,9.60
2022-09-12T04:59:24.307Z,9.48
2022-09-12T05:04:26.067Z,10.18
2022-09-12T05:09:27.812Z,8.45
2022-09-12T05:14:29.778Z,8.40
2022-09-12T05:19:33.563Z,9.98
2022-09-12T05:24:35.516Z,9.13
2022-09-12T05:29:37.211Z,9.75
2022-09-12T05:34:40.152Z,8.73
2022-09-12T05:39:41.877Z,9.02
2022-09-12T05:44:43.595Z,8.85
2022-09-12T05:49:47.897Z,9.10
2022-09-12T05:54:49.678Z,9.52
2022-09-12T05:59:51.478Z,9.05
2022-09-12T06:04:53.260Z,9.63
2022-09-12T06:09:55.065Z,8.25
2022-09-12T06:14:56.997Z,8.73
2022-09-12T06:19:59.452Z,9.45
2022-09-12T06:25:01.275Z,9.00
2022-09-12T06:30:03.231Z,9.35
2022-09-12T06:35:05.520Z,9.38
2022-09-12T06:40:08.506Z,8.77
2022-09-12T06:45:11.502Z,8.95
2022-09-12T06:50:13.361Z,9.02
2022-09-12T06:55:19.466Z,8.63
2022-09-12T07:00:22.090Z,10.75
2022-09-12T07:05:23.805Z,8.55
2022-09-12T07:10:25.588Z,8.32
2022-09-12T07:15:27.423Z,8.57
2022-09-12T07:20:29.701Z,8.50
2022-09-12T07:25:31.412Z,9.60
2022-09-12T07:30:33.189Z,8.15
2022-09-12T07:35:35.128Z,8.20
2022-09-12T07:40:36.833Z,7.80
2022-09-12T07:45:41.765Z,8.38
2022-09-12T07:50:45.203Z,7.22
2022-09-12T07:55:56.292Z,7.35
2022-09-12T08:01:05.786Z,8.10
2022-09-12T08:06:15.682Z,7.00
2022-09-12T08:11:20.032Z,6.28
2022-09-12T08:16:24.096Z,5.90
2022-09-12T08:21:31.133Z,6.82
2022-09-12T08:26:34.670Z,5.63
2022-09-12T08:31:37.004Z,4.25
2022-09-12T08:36:38.746Z,5.28
2022-09-12T08:41:45.758Z,3.05
2022-09-12T08:47:18.402Z,3.78
2022-09-12T08:52:26.538Z,4.63
2022-09-12T08:57:28.445Z,3.88
2022-09-12T09:02:53.335Z,2.53
2022-09-12T09:08:22.695Z,1.75
2022-09-12T09:14:14.916Z,1.90
2022-09-12T09:19:25.232Z,2.30
2022-09-12T09:24:55.185Z,2.17
2022-09-12T09:29:57.407Z,1.60
2022-09-12T09:35:00.501Z,1.42
2022-09-12T09:40:14.297Z,1.33
2022-09-12T09:45:20.663Z,1.50
2022-09-12T09:50:22.468Z,1.50
2022-09-12T09:55:30.984Z,1.38
2022-09-12T10:00:35.225Z,1.23
2022-09-12T10:05:52.845Z,1.02
2022-09-12T10:11:17.393Z,1.60
2022-09-12T10:16:21.976Z,1.30
2022-09-12T10:21:41.344Z,1.10
2022-09-12T10:26:52.251Z,1.23
2022-09-12T10:31:59.398Z,1.00
2022-09-12T10:37:31.814Z,1.20
2022-09-12T10:42:54.585Z,1.00
2022-09-12T10:48:05.463Z,1.70
2022-09-12T10:53:34.494Z,1.30
2022-09-12T10:58:36.687Z,1.23
2022-09-12T11:04:05.203Z,1.10
2022-09-12T11:09:13.053Z,1.30
2022-09-12T11:14:28.986Z,1.10
2022-09-12T11:19:59.490Z,1.40
2022-09-12T11:25:07.195Z,1.40
2022-09-12T11:30:16.187Z,1.80
2022-09-12T11:35:29.474Z,1.98
2022-09-12T11:40:50.413Z,1.70
2022-09-12T11:45:53.263Z,1.75
2022-09-12T11:50:55.342Z,1.40
2022-09-12T11:56:09.356Z,1.30
2022-09-12T12:01:29.925Z,1.40
2022-09-12T12:06:35.733Z,1.65
2022-09-12T12:11:43.675Z,2.03
2022-09-12T12:16:46.258Z,1.50
2022-09-12T12:21:51.945Z,1.52
2022-09-12T12:26:57.356Z,1.50
2022-09-12T12:32:04.844Z,1.60
2022-09-12T12:37:22.069Z,1.50
2022-09-12T12:42:33.324Z,1.10
2022-09-12T12:47:37.848Z,1.20
2022-09-12T12:52:54.084Z,1.42
2022-09-12T12:58:03.570Z,1.23
2022-09-12T13:03:08.169Z,1.27
2022-09-12T13:08:32.294Z,1.02
2022-09-12T13:13:57.050Z,1.10
2022-09-12T13:19:04.546Z,1.20
2022-09-12T13:24:17.103Z,1.30
2022-09-12T13:29:23.563Z,1.70
2022-09-12T13:34:34.608Z,1.10
2022-09-12T13:40:05.799Z,1.27
2022-09-12T13:45:11.292Z,1.40
2022-09-12T13:50:28.154Z,1.17
2022-09-12T13:55:31.889Z,1.50
2022-09-12T14:00:35.044Z,1.30
2022-09-12T14:05:40.260Z,1.13
2022-09-12T14:10:44.389Z,1.00
2022-09-12T14:15:50.156Z,1.20
2022-09-12T14:20:54.105Z,1.20
2022-09-12T14:25:59.043Z,1.20
2022-09-12T14:31:15.684Z,1.20
2022-09-12T14:36:32.570Z,1.10
2022-09-12T14:41:40.765Z,1.02
2022-09-12T14:46:44.407Z,1.30
2022-09-12T14:51:51.904Z,1.08
2022-09-12T14:57:39.352Z,1.20
2022-09-12T15:02:44.730Z,1.30
2022-09-12T15:07:56.699Z,1.60
2022-09-12T15:13:10.847Z,1.65
2022-09-12T15:18:13.709Z,1.33
2022-09-12T15:23:40.142Z,1.50
2022-09-12T15:28:42.154Z,1.50
2022-09-12T15:33:43.970Z,1.30
2022-09-12T15:38:47.351Z,1.40
2022-09-12T15:43:50.538Z,1.40
2022-09-12T15:48:52.264Z,1.42
2022-09-12T15:53:54.098Z,1.40
2022-09-12T15:59:00.228Z,1.45
2022-09-12T16:04:03.330Z,1.80
2022-09-12T16:09:05.025Z,1.55
2022-09-12T16:14:06.807Z,1.20
2022-09-12T16:19:09.979Z,1.83
2022-09-12T16:24:11.754Z,1.70
2022-09-12T16:29:14.467Z,1.42
2022-09-12T16:34:16.181Z,2.17
2022-09-12T16:39:17.912Z,1.70
2022-09-12T16:44:19.976Z,1.63
2022-09-12T16:49:21.796Z,3.63
2022-09-12T16:54:23.744Z,1.83
2022-09-12T16:59:25.447Z,2.10
2022-09-12T17:04:27.421Z,2.03
2022-09-12T17:09:29.431Z,2.33
2022-09-12T17:14:31.266Z,2.60
2022-09-12T17:19:33.023Z,2.90
2022-09-12T17:24:35.075Z,3.50
2022-09-12T17:29:38.517Z,2.63
2022-09-12T17:34:40.330Z,2.58
2022-09-12T17:39:42.185Z,2.72
2022-09-12T17:44:44.010Z,3.22
2022-09-12T17:49:45.777Z,3.90
2022-09-12T17:54:47.502Z,4.10
2022-09-12T17:59:49.309Z,3.72
2022-09-12T18:04:51.037Z,3.65
2022-09-12T18:09:53.087Z,4.13
2022-09-12T18:14:54.815Z,3.95
2022-09-12T18:19:56.753Z,4.20
2022-09-12T18:24:58.816Z,5.35
2022-09-12T18:30:19.993Z,4.53
2022-09-12T18:35:22.375Z,4.85
2022-09-12T18:40:24.206Z,5.47
2022-09-12T18:45:26.406Z,5.38
2022-09-12T18:50:28.252Z,5.30
2022-09-12T18:55:32.618Z,4.82
2022-09-12T19:00:34.454Z,6.20
2022-09-12T19:05:36.273Z,6.88
2022-09-12T19:10:37.986Z,6.05
2022-09-12T19:15:41.127Z,6.15
2022-09-12T19:20:43.084Z,5.72
2022-09-12T19:25:45.559Z,5.80
2022-09-12T19:30:49.995Z,6.55
2022-09-12T19:35:52.447Z,7.70
2022-09-12T19:41:02.377Z,5.85
2022-09-12T19:46:05.347Z,6.68
2022-09-12T19:51:07.101Z,9.25
2022-09-12T19:56:10.345Z,6.28
2022-09-12T20:01:21.077Z,6.60
2022-09-12T20:06:23.246Z,6.30
2022-09-12T20:11:25.730Z,6.72
2022-09-12T20:16:29.487Z,6.43
2022-09-12T20:21:33.989Z,7.05
2022-09-12T20:26:36.144Z,6.90
2022-09-12T20:31:39.704Z,7.15
2022-09-12T20:36:41.776Z,6.15
2022-09-12T20:41:43.725Z,6.75
2022-09-12T20:46:45.632Z,6.10
2022-09-12T20:51:48.381Z,6.15
2022-09-12T20:56:50.081Z,6.70
2022-09-12T21:01:52.942Z,6.75
2022-09-12T21:06:54.798Z,6.68
2022-09-12T21:11:56.808Z,6.43
2022-09-12T21:16:58.776Z,6.40
2022-09-12T21:22:00.870Z,6.18
2022-09-12T21:27:04.553Z,6.50
2022-09-12T21:32:09.025Z,6.57
2022-09-12T21:37:13.222Z,6.47
2022-09-12T21:42:14.922Z,6.38
2022-09-12T21:47:17.139Z,5.63
2022-09-12T21:52:18.848Z,5.32
2022-09-12T21:57:20.540Z,5.95
2022-09-12T22:02:22.996Z,6.10
2022-09-12T22:07:25.790Z,5.70
2022-09-12T22:12:28.681Z,5.95
2022-09-12T22:17:30.373Z,5.40
2022-09-12T22:22:52.833Z,5.70
2022-09-12T22:27:55.077Z,5.25
2022-09-12T22:32:56.754Z,5.30
2022-09-12T22:37:58.449Z,6.00
2022-09-12T22:43:01.169Z,5.63
2022-09-12T22:48:06.219Z,6.57
2022-09-12T22:53:10.774Z,5.13
2022-09-12T22:58:12.660Z,4.95
2022-09-12T23:03:14.573Z,4.82
2022-09-12T23:08:17.732Z,4.82
2022-09-12T23:13:19.447Z,4.85
2022-09-12T23:18:21.197Z,4.63
2022-09-12T23:23:23.077Z,4.88
2022-09-12T23:28:24.760Z,4.55
2022-09-12T23:33:28.490Z,5.20
2022-09-12T23:38:30.820Z,4.78
2022-09-12T23:43:32.750Z,4.90
2022-09-12T23:48:34.529Z,4.97
2022-09-12T23:53:36.382Z,4.90
2022-09-12T23:58:38.184Z,5.20
